Time;durP1;ratioP1;P1;durP2;ratioP2;P2;SDS_P1;SDS_P2;PMS_P1;PMS_P2;Temp;Humidity;BMP_temperature;BMP_pressure;BME280_temperature;BME280_humidity;BME280_pressure;Samples;Min_cycle;Max_cycle;Signal;HPM_P1;HPM_P2
2023/06/07 00:01:33;;;;;;;;;;;21.90;55.70;;;22.06;40.32;98727.03;5028721;28;124149;-82
2023/06/07 00:04:02;;;;;;;;;;;21.90;55.80;;;22.02;40.25;98731.81;5028000;28;124004;-82
2023/06/07 00:06:28;;;;;;;;;;;21.80;55.80;;;21.99;40.72;98723.34;5027522;28;115498;-82
2023/06/07 00:08:55;;;;;;;;;;;21.80;56.00;;;21.97;40.60;98734.19;5027329;28;114715;-83
2023/06/07 00:11:22;;;;;;;;;;;21.80;56.10;;;21.93;40.85;98728.53;5027550;28;124090;-82
2023/06/07 00:13:50;;;;;;;;;;;21.80;56.20;;;21.93;40.90;98736.19;5026771;28;123837;-82
2023/06/07 00:16:17;;;;;;;;;;;21.70;56.20;;;21.88;40.75;98733.72;5028042;28;114844;-82
2023/06/07 00:18:43;;;;;;;;;;;21.70;56.40;;;21.84;40.99;98725.22;5027469;28;113530;-82
2023/06/07 00:21:10;;;;;;;;;;;21.70;56.50;;;21.79;41.00;98734.06;5028668;28;124149;-82
2023/06/07 00:23:37;;;;;;;;;;;21.60;56.50;;;21.75;41.36;98724.78;5028062;28;123801;-83
2023/06/07 00:26:10;;;;;;;;;;;21.50;56.50;;;21.72;41.08;98734.00;5030398;28;114354;-83
2023/06/07 00:28:36;;;;;;;;;;;21.50;56.70;;;21.67;41.32;98726.72;5033129;28;113452;-83
2023/06/07 00:31:03;;;;;;;;;;;21.50;56.80;;;21.64;41.64;98723.88;5027117;28;124320;-83
2023/06/07 00:33:30;;;;;;;;;;;21.40;56.80;;;21.61;41.66;98729.09;5029209;28;124619;-83
2023/06/07 00:35:56;;;;;;;;;;;21.40;56.90;;;21.59;41.54;98734.28;5027975;28;114441;-83
2023/06/07 00:38:27;;;;;;;;;;;21.40;57.00;;;21.57;41.49;98721.81;5029161;28;113714;-83
2023/06/07 00:40:54;;;;;;;;;;;21.30;57.10;;;21.51;41.65;98728.97;5013712;28;123887;-82
2023/06/07 00:43:20;;;;;;;;;;;21.30;57.20;;;21.46;41.74;98718.09;5033800;28;123981;-83
2023/06/07 00:45:46;;;;;;;;;;;21.30;57.40;;;21.40;41.92;98728.88;5032451;28;115299;-83
2023/06/07 00:48:15;;;;;;;;;;;21.20;57.30;;;21.32;41.76;98732.78;5033175;28;113783;-83
2023/06/07 00:50:41;;;;;;;;;;;21.20;57.40;;;21.25;42.31;98730.72;5018165;28;123536;-83
2023/06/07 00:53:08;;;;;;;;;;;21.10;57.60;;;21.18;42.62;98731.44;5031306;28;123819;-83
2023/06/07 00:55:34;;;;;;;;;;;21.10;57.70;;;21.15;42.36;98735.03;5031138;28;115504;-83
2023/06/07 00:58:01;;;;;;;;;;;21.00;57.80;;;21.12;42.50;98733.00;5032918;28;114712;-83
2023/06/07 01:00:28;;;;;;;;;;;21.00;58.00;;;21.11;42.72;98730.56;5014822;27;124094;-83
2023/06/07 01:02:55;;;;;;;;;;;20.90;58.00;;;21.09;42.30;98735.75;5031483;28;123685;-83
2023/06/07 01:05:21;;;;;;;;;;;20.90;58.10;;;21.07;42.66;98730.53;5032983;28;113854;-83
2023/06/07 01:07:51;;;;;;;;;;;20.80;58.10;;;21.04;42.54;98728.50;5030883;28;114031;-83
2023/06/07 01:10:20;;;;;;;;;;;20.90;58.30;;;21.01;42.67;98734.88;5030832;28;124172;-83
2023/06/07 01:12:53;;;;;;;;;;;20.80;58.40;;;20.98;42.97;98732.81;5034909;28;123518;-84
2023/06/07 01:15:20;;;;;;;;;;;20.80;58.50;;;20.96;42.94;98736.03;5031371;28;114468;-82
2023/06/07 01:17:47;;;;;;;;;;;20.80;58.60;;;20.96;42.96;98732.41;5033542;28;113805;-83
2023/06/07 01:20:19;;;;;;;;;;;20.70;58.70;;;20.95;43.00;98736.41;5034188;28;124173;-83
2023/06/07 01:22:51;;;;;;;;;;;20.70;58.80;;;20.92;43.25;98731.56;5030945;28;123785;-83
2023/06/07 01:25:17;;;;;;;;;;;20.70;58.90;;;20.90;43.21;98728.31;5031529;28;114266;-83
2023/06/07 01:27:46;;;;;;;;;;;20.70;59.00;;;20.86;43.11;98727.47;5017598;28;112648;-83
2023/06/07 01:30:13;;;;;;;;;;;20.70;59.10;;;20.82;43.38;98733.06;5031100;28;124838;-83
2023/06/07 01:32:40;;;;;;;;;;;20.60;59.10;;;20.79;43.50;98725.38;5030932;28;123726;-83
2023/06/07 01:35:09;;;;;;;;;;;20.60;59.30;;;20.77;43.40;98724.13;5031537;28;114229;-83
2023/06/07 01:37:35;;;;;;;;;;;20.60;59.40;;;20.74;43.40;98720.94;5017383;28;113189;-83
2023/06/07 01:40:04;;;;;;;;;;;20.50;59.40;;;20.72;43.69;98723.31;5031786;27;124154;-84
2023/06/07 01:42:32;;;;;;;;;;;20.50;59.40;;;20.70;43.81;98736.09;5031146;28;124120;-84
2023/06/07 01:44:58;;;;;;;;;;;20.50;59.50;;;20.67;43.86;98725.66;5030874;28;115183;-84
2023/06/07 01:47:25;;;;;;;;;;;20.40;59.50;;;20.65;43.85;98730.81;5031035;28;115274;-84
2023/06/07 01:49:51;;;;;;;;;;;20.40;59.70;;;20.62;43.79;98723.16;5017213;28;123459;-83
2023/06/07 01:52:18;;;;;;;;;;;20.40;59.80;;;20.60;43.92;98720.72;5030393;27;124525;-84
2023/06/07 01:54:44;;;;;;;;;;;20.40;59.90;;;20.56;44.16;98719.91;5030993;28;114331;-84
2023/06/07 01:57:17;;;;;;;;;;;20.30;60.00;;;20.54;44.25;98733.50;5030351;28;113898;-84
2023/06/07 02:00:08;;;;;;;;;;;20.30;60.00;;;20.49;44.18;98719.75;5031487;28;124799;-84
2023/06/07 02:02:44;;;;;;;;;;;20.30;60.10;;;20.47;44.21;98716.53;5029412;27;124029;-83
2023/06/07 02:05:18;;;;;;;;;;;20.30;60.20;;;20.43;44.43;98715.69;5030415;28;114578;-83
2023/06/07 02:07:49;;;;;;;;;;;20.20;60.20;;;20.39;44.22;98709.19;5030794;28;113838;-84
2023/06/07 02:10:19;;;;;;;;;;;20.20;60.30;;;20.36;44.45;98726.78;5030727;28;124691;-83
2023/06/07 02:12:46;;;;;;;;;;;20.20;60.40;;;20.33;44.19;98716.34;5030029;28;123993;-83
2023/06/07 02:15:12;;;;;;;;;;;20.10;60.50;;;20.30;44.51;98715.09;5032071;28;114341;-83
2023/06/07 02:17:57;;;;;;;;;;;20.10;60.60;;;20.25;44.83;98710.63;5034373;28;114085;-83
2023/06/07 02:20:27;;;;;;;;;;;20.10;60.70;;;20.23;44.80;98713.00;5030269;28;124304;-83
2023/06/07 02:22:58;;;;;;;;;;;20.00;60.70;;;20.23;44.72;98701.78;5029792;28;123983;-83
2023/06/07 02:25:24;;;;;;;;;;;20.00;60.80;;;20.20;44.86;98710.97;5017124;28;113787;-83
2023/06/07 02:27:53;;;;;;;;;;;20.00;61.00;;;20.17;45.11;98713.72;5031462;28;113937;-83
2023/06/07 02:30:20;;;;;;;;;;;19.90;61.10;;;20.13;45.07;98713.66;5030060;28;124808;-83
2023/06/07 02:32:54;;;;;;;;;;;19.90;61.20;;;20.10;45.02;98710.81;5031160;28;124152;-83
2023/06/07 02:35:21;;;;;;;;;;;19.90;61.30;;;20.09;44.89;98718.41;5033386;27;114893;-83
2023/06/07 02:37:47;;;;;;;;;;;19.90;61.40;;;20.07;45.12;98707.56;5029577;28;114480;-83
2023/06/07 02:40:14;;;;;;;;;;;19.90;61.50;;;20.06;45.18;98705.13;5030512;27;124330;-83
2023/06/07 02:42:45;;;;;;;;;;;19.90;61.60;;;20.04;45.29;98715.91;5005158;28;123433;-83
2023/06/07 02:45:12;;;;;;;;;;;19.80;61.50;;;20.00;45.44;98715.06;5030643;28;114379;-83
2023/06/07 02:47:41;;;;;;;;;;;19.80;61.70;;;19.94;45.73;98725.00;5009276;28;112879;-83
2023/06/07 02:50:08;;;;;;;;;;;19.80;62.10;;;19.89;45.94;98726.13;5030692;28;124265;-83
2023/06/07 02:52:36;;;;;;;;;;;19.70;62.30;;;19.83;46.02;98725.63;5031449;28;123970;-84
2023/06/07 02:55:03;;;;;;;;;;;19.60;62.20;;;19.80;45.84;98720.78;5033141;27;113516;-83
2023/06/07 02:57:29;;;;;;;;;;;19.60;62.20;;;19.79;45.82;98721.94;5034076;27;113198;-84
2023/06/07 02:59:56;;;;;;;;;;;19.60;62.40;;;19.77;45.93;98718.75;5015707;28;123310;-83
2023/06/07 03:02:22;;;;;;;;;;;19.60;62.40;;;19.76;46.10;98719.91;5029053;27;123891;-83
2023/06/07 03:04:57;;;;;;;;;;;19.60;62.60;;;19.75;46.08;98721.09;5015849;28;114196;-83
2023/06/07 03:07:23;;;;;;;;;;;19.50;62.60;;;19.73;46.03;98717.06;5029437;28;113966;-84
2023/06/07 03:09:49;;;;;;;;;;;19.50;62.70;;;19.72;46.17;98715.41;5031513;28;124081;-83
2023/06/07 03:12:16;;;;;;;;;;;19.50;62.80;;;19.69;46.41;98716.97;5030246;28;123922;-84
2023/06/07 03:14:42;;;;;;;;;;;19.50;62.90;;;19.68;46.46;98715.38;5029351;28;114253;-83
2023/06/07 03:17:11;;;;;;;;;;;19.50;63.00;;;19.65;46.39;98722.50;5032404;28;114034;-84
2023/06/07 03:19:37;;;;;;;;;;;19.50;63.10;;;19.65;46.62;98735.72;5029290;28;124217;-83
2023/06/07 03:22:06;;;;;;;;;;;19.40;63.10;;;;;;5030411;28;123849;-83
2023/06/07 03:24:34;;;;;;;;;;;19.40;63.30;;;19.62;46.70;98730.88;5030678;28;114809;-84
2023/06/07 03:27:01;;;;;;;;;;;19.40;63.40;;;19.59;46.71;98732.41;5029502;28;114880;-84
2023/06/07 03:29:30;;;;;;;;;;;19.40;63.50;;;19.58;46.82;98727.19;5032256;27;124441;-83
2023/06/07 03:31:56;;;;;;;;;;;19.30;63.50;;;19.57;46.92;98722.75;5029032;28;124373;-83
2023/06/07 03:34:23;;;;;;;;;;;19.30;63.70;;;19.55;46.99;98730.72;5029567;28;114334;-83
2023/06/07 03:36:49;;;;;;;;;;;19.30;63.80;;;19.54;47.23;98726.31;5029625;28;113656;-84
2023/06/07 03:39:16;;;;;;;;;;;19.30;64.00;;;19.54;47.15;98729.13;5023987;27;124779;-84
2023/06/07 03:41:42;;;;;;;;;;;19.30;64.10;;;19.51;47.21;98732.69;5030547;28;123847;-83
2023/06/07 03:44:11;;;;;;;;;;;19.30;64.30;;;19.50;47.38;98725.44;5031034;27;106184;-83
2023/06/07 03:46:37;;;;;;;;;;;19.30;64.50;;;19.48;47.67;98733.41;5029407;28;113466;-84
2023/06/07 03:49:04;;;;;;;;;;;19.20;64.50;;;19.46;47.32;98730.19;5029502;28;124043;-83
2023/06/07 03:51:32;;;;;;;;;;;19.20;64.60;;;19.47;47.61;98729.78;5030283;28;123700;-84
2023/06/07 03:53:58;;;;;;;;;;;19.20;64.70;;;19.48;47.42;98733.41;5030115;28;114529;-83
2023/06/07 03:56:25;;;;;;;;;;;19.20;64.80;;;19.47;47.59;98734.59;5029188;28;113566;-84
2023/06/07 03:58:54;;;;;;;;;;;19.20;64.90;;;19.46;47.68;98735.78;5029598;28;123826;-84
2023/06/07 04:01:25;;;;;;;;;;;19.20;64.90;;;19.50;47.38;98733.84;5029699;27;124170;-84
2023/06/07 04:03:51;;;;;;;;;;;19.20;65.10;;;19.61;47.31;98726.41;5030676;28;114563;-84
2023/06/07 04:06:20;;;;;;;;;;;19.20;65.30;;;19.75;47.05;98729.50;5029394;28;113845;-84
2023/06/07 04:08:47;;;;;;;;;;;19.20;65.40;;;19.80;46.75;98736.78;5029070;28;123417;-84
2023/06/07 04:11:18;;;;;;;;;;;19.20;65.20;;;19.76;46.79;98733.94;5028391;28;124710;-84
2023/06/07 04:13:45;;;;;;;;;;;19.30;65.00;;;19.70;46.88;98740.25;5037035;27;114357;-84
2023/06/07 04:16:14;;;;;;;;;;;19.20;64.80;;;19.64;46.87;98734.09;5028342;28;114681;-84
2023/06/07 04:18:40;;;;;;;;;;;19.30;64.90;;;19.60;46.70;98736.84;5029347;28;124296;-84
2023/06/07 04:21:06;;;;;;;;;;;19.20;64.80;;;19.53;47.09;98739.53;5029647;28;123977;-84
2023/06/07 04:23:33;;;;;;;;;;;19.20;64.70;;;19.45;47.19;98729.38;5029693;28;114501;-84
2023/06/07 04:26:05;;;;;;;;;;;19.20;64.70;;;19.39;47.20;98731.66;5028662;28;114102;-84
2023/06/07 04:28:33;;;;;;;;;;;19.10;64.60;;;19.38;47.46;98735.66;5027950;28;124562;-83
2023/06/07 04:30:59;;;;;;;;;;;19.10;64.90;;;19.36;47.45;98732.41;5028843;28;123876;-84
2023/06/07 04:33:27;;;;;;;;;;;19.10;64.90;;;19.37;47.36;98742.44;5032669;27;114419;-83
2023/06/07 04:35:57;;;;;;;;;;;19.10;65.00;;;19.36;47.68;98742.81;5028142;28;113939;-84
2023/06/07 04:38:24;;;;;;;;;;;19.10;65.20;;;19.33;47.91;98738.75;5027135;28;124453;-84
2023/06/07 04:40:50;;;;;;;;;;;19.10;65.30;;;19.31;48.15;98741.13;5028869;27;123949;-83
2023/06/07 04:43:20;;;;;;;;;;;19.10;65.50;;;19.29;47.95;98737.91;5030651;27;114205;-83
2023/06/07 04:45:53;;;;;;;;;;;19.10;65.60;;;19.27;48.08;98740.25;5032121;28;113838;-83
2023/06/07 04:48:26;;;;;;;;;;;19.10;65.80;;;19.28;48.27;98746.66;5028902;28;124512;-84
2023/06/07 04:51:04;;;;;;;;;;;19.10;65.90;;;19.27;48.32;98739.47;5014522;28;122925;-83
2023/06/07 04:53:36;;;;;;;;;;;19.00;66.00;;;19.28;48.43;98736.25;5028773;28;114509;-84
2023/06/07 04:56:04;;;;;;;;;;;19.00;66.10;;;19.29;48.62;98740.69;5028126;28;113882;-83
2023/06/07 04:58:31;;;;;;;;;;;19.00;66.70;;;19.29;48.94;98737.06;5030453;28;124470;-83
2023/06/07 05:00:57;;;;;;;;;;;19.00;66.90;;;19.28;48.88;98741.88;5029219;27;124391;-83
2023/06/07 05:03:24;;;;;;;;;;;19.00;66.90;;;19.30;48.89;98742.31;5030067;28;116023;-83
2023/06/07 05:05:51;;;;;;;;;;;19.00;67.10;;;19.29;48.80;98754.72;5022491;28;115020;-83
2023/06/07 05:08:20;;;;;;;;;;;19.00;67.10;;;19.29;48.70;98749.09;5028124;28;123901;-82
2023/06/07 05:10:46;;;;;;;;;;;19.00;67.10;;;19.33;49.07;98755.56;5027646;28;124210;-83
2023/06/07 05:13:13;;;;;;;;;;;19.00;67.20;;;19.29;49.17;98751.91;5029090;28;114394;-83
2023/06/07 05:15:39;;;;;;;;;;;19.00;67.80;;;19.25;48.95;98753.81;5027646;28;113401;-82
2023/06/07 05:18:05;;;;;;;;;;;19.00;67.40;;;19.28;49.19;98758.69;5028339;28;124298;-83
2023/06/07 05:20:32;;;;;;;;;;;19.00;67.50;;;19.29;48.98;98753.88;5031042;27;123153;-81
2023/06/07 05:22:59;;;;;;;;;;;19.00;67.50;;;19.33;49.09;98758.38;5028776;28;114528;-82
2023/06/07 05:25:25;;;;;;;;;;;19.00;67.40;;;19.38;48.95;98752.47;5029527;28;113723;-82
2023/06/07 05:27:52;;;;;;;;;;;19.00;67.50;;;19.43;48.87;98759.75;5028000;28;123962;-82
2023/06/07 05:30:18;;;;;;;;;;;19.10;67.50;;;19.46;48.84;98753.41;5028174;28;124152;-83
2023/06/07 05:32:44;;;;;;;;;;;19.10;67.70;;;19.46;48.84;98755.41;5028655;28;114597;-82
2023/06/07 05:35:11;;;;;;;;;;;19.10;67.80;;;19.42;49.08;98763.72;5014505;28;112857;-82
2023/06/07 05:37:37;;;;;;;;;;;19.00;67.90;;;19.43;49.47;98759.75;5028636;28;124322;-82
2023/06/07 05:40:07;;;;;;;;;;;19.00;68.30;;;19.45;49.38;98760.22;5031271;27;124017;-83
2023/06/07 05:42:38;;;;;;;;;;;19.00;68.20;;;19.51;49.01;98771.91;5024933;28;115091;-82
2023/06/07 05:45:06;;;;;;;;;;;19.10;68.20;;;19.58;49.14;98760.81;5025840;27;113282;-81
2023/06/07 05:47:32;;;;;;;;;;;19.10;68.40;;;19.60;49.26;98769.66;5031599;28;124335;-83
2023/06/07 05:49:58;;;;;;;;;;;19.10;68.80;;;19.58;49.36;98758.00;5031407;28;124477;-83
2023/06/07 05:52:25;;;;;;;;;;;19.10;68.70;;;19.59;49.25;98759.66;5030160;28;115269;-82
2023/06/07 05:54:54;;;;;;;;;;;19.10;68.80;;;19.61;49.46;98754.44;5034018;28;115075;-81
2023/06/07 05:57:21;;;;;;;;;;;19.20;69.00;;;19.59;49.47;98756.84;5012300;28;123370;-83
2023/06/07 05:59:47;;;;;;;;;;;19.10;69.30;;;19.58;49.21;98758.00;5029863;28;123220;-81
2023/06/07 06:02:16;;;;;;;;;;;19.10;69.10;;;19.53;49.69;98758.31;5027525;28;114458;-83
2023/06/07 06:04:43;;;;;;;;;;;19.10;69.40;;;19.53;49.83;98756.34;5021388;28;113851;-83
2023/06/07 06:07:10;;;;;;;;;;;19.10;69.30;;;19.56;49.60;98751.97;5025688;28;124235;-83
2023/06/07 06:09:36;;;;;;;;;;;19.10;69.60;;;19.57;49.77;98754.41;5030452;28;123495;-82
2023/06/07 06:12:03;;;;;;;;;;;19.10;69.60;;;19.62;49.72;98756.09;5029450;28;114353;-83
2023/06/07 06:14:29;;;;;;;;;;;19.20;69.90;;;19.68;49.83;98757.41;5003914;28;113236;-84
2023/06/07 06:16:55;;;;;;;;;;;19.20;69.90;;;19.70;49.72;98760.66;5034488;27;124853;-83
2023/06/07 06:19:22;;;;;;;;;;;19.30;69.70;;;19.76;49.53;98756.34;4998553;28;125137;-84
2023/06/07 06:21:48;;;;;;;;;;;19.40;69.60;;;19.85;49.40;98756.91;5031282;28;114665;-82
2023/06/07 06:24:14;;;;;;;;;;;19.40;69.40;;;19.96;49.33;98754.28;5031267;28;113750;-84
2023/06/07 06:26:40;;;;;;;;;;;19.50;69.40;;;20.08;49.09;98761.66;5030375;27;124360;-84
2023/06/07 06:29:07;;;;;;;;;;;19.50;69.70;;;20.14;48.95;98754.53;5030057;28;124756;-83
2023/06/07 06:31:33;;;;;;;;;;;19.60;69.50;;;20.22;48.74;98753.47;5030744;28;114362;-84
2023/06/07 06:34:02;;;;;;;;;;;19.70;69.40;;;20.28;48.61;98749.16;5031581;28;113405;-83
2023/06/07 06:36:29;;;;;;;;;;;19.80;69.60;;;20.34;48.88;98757.22;5032246;28;124064;-83
2023/06/07 06:38:55;;;;;;;;;;;19.80;69.50;;;20.41;48.75;98751.72;5028620;27;123878;-83
2023/06/07 06:41:22;;;;;;;;;;;19.90;69.40;;;20.48;48.56;98752.63;5029012;28;115634;-81
2023/06/07 06:43:48;;;;;;;;;;;19.90;69.30;;;20.50;48.73;98755.06;5031236;28;114067;-82
2023/06/07 06:46:15;;;;;;;;;;;20.00;69.30;;;20.54;48.50;98760.75;5030298;28;124314;-82
2023/06/07 06:48:44;;;;;;;;;;;20.00;69.30;;;20.61;48.23;98756.06;5032337;28;123983;-81
2023/06/07 06:51:10;;;;;;;;;;;20.00;69.40;;;20.65;48.12;98751.28;5029633;28;115369;-82
2023/06/07 06:53:37;;;;;;;;;;;20.00;69.30;;;20.68;48.11;98767.34;5030154;28;113664;-81
2023/06/07 06:56:03;;;;;;;;;;;20.10;69.10;;;20.71;48.09;98761.00;5015091;28;123158;-81
2023/06/07 06:58:34;;;;;;;;;;;20.10;69.80;;;20.74;48.38;98759.44;5029549;28;124731;-82
2023/06/07 07:01:02;;;;;;;;;;;20.20;69.10;;;20.76;48.09;98757.03;5016854;28;113776;-81
2023/06/07 07:03:28;;;;;;;;;;;20.20;69.10;;;20.74;48.17;98757.44;5029608;27;114595;-80
2023/06/07 07:05:55;;;;;;;;;;;20.20;69.20;;;20.77;48.46;98763.44;5003531;28;124900;-80
2023/06/07 07:08:21;;;;;;;;;;;20.30;69.30;;;20.76;48.68;98761.84;5027536;28;123793;-81
2023/06/07 07:10:49;;;;;;;;;;;20.20;69.60;;;20.80;48.60;98757.09;5033354;28;113736;-82
2023/06/07 07:13:18;;;;;;;;;;;20.30;69.70;;;20.87;48.51;98754.34;5031054;27;113369;-82
2023/06/07 07:15:47;;;;;;;;;;;20.40;69.80;;;21.00;48.50;98754.91;5028456;28;124391;-81
2023/06/07 07:18:13;;;;;;;;;;;20.50;69.70;;;21.10;48.27;98762.66;5029220;28;124556;-81
2023/06/07 07:20:42;;;;;;;;;;;20.50;69.60;;;21.17;48.19;98757.09;5032359;27;113470;-81
2023/06/07 07:23:11;;;;;;;;;;;20.60;69.50;;;21.24;48.02;98756.38;5030834;28;113987;-79
2023/06/07 07:25:37;;;;;;;;;;;20.70;69.20;;;21.34;47.80;98758.50;5033179;28;123925;-80
2023/06/07 07:28:03;;;;;;;;;;;20.80;69.10;;;21.43;47.42;98750.59;5033515;28;123719;-80
2023/06/07 07:30:30;;;;;;;;;;;20.90;69.00;;;21.48;47.45;98744.63;5029947;28;115454;-79
2023/06/07 07:32:56;;;;;;;;;;;20.90;68.80;;;21.53;47.37;98752.72;5030238;28;114827;-80
2023/06/07 07:35:23;;;;;;;;;;;20.90;68.70;;;21.61;47.13;98751.56;5028911;28;124856;-80
2023/06/07 07:37:50;;;;;;;;;;;21.00;68.60;;;21.64;47.10;98750.00;5029398;28;124642;-80
2023/06/07 07:40:17;;;;;;;;;;;21.10;68.40;;;21.75;46.60;98755.72;5029142;28;114616;-79
2023/06/07 07:42:43;;;;;;;;;;;21.20;68.30;;;21.89;46.45;98743.75;5024626;28;113690;-79
2023/06/07 07:45:10;;;;;;;;;;;21.30;68.00;;;21.98;45.97;98749.88;5028697;28;124160;-78
2023/06/07 07:47:36;;;;;;;;;;;21.40;67.60;;;22.06;45.80;98749.53;5029743;28;124302;-78
2023/06/07 07:50:07;;;;;;;;;;;21.50;67.40;;;22.12;45.63;98743.53;5020784;27;115238;-80
2023/06/07 07:52:33;;;;;;;;;;;21.50;67.10;;;22.13;45.79;98747.97;5027881;28;113818;-79
2023/06/07 07:55:00;;;;;;;;;;;21.60;67.00;;;22.18;45.67;98745.63;5026171;28;124674;-78
2023/06/07 07:57:28;;;;;;;;;;;21.60;66.90;;;22.26;45.48;98747.28;5029042;28;123654;-79
2023/06/07 07:59:55;;;;;;;;;;;21.70;66.90;;;22.29;45.20;98754.13;5029598;28;114547;-77
2023/06/07 08:02:21;;;;;;;;;;;21.70;66.60;;;22.29;45.00;98751.31;5030166;28;112971;-77
2023/06/07 08:04:48;;;;;;;;;;;21.70;66.60;;;22.31;45.02;98743.28;5029382;28;124804;-79
2023/06/07 08:07:15;;;;;;;;;;;21.70;66.50;;;22.38;45.25;98753.78;5028236;28;123833;-79
2023/06/07 08:09:44;;;;;;;;;;;21.80;66.50;;;22.45;44.92;98749.00;5029668;28;115181;-80
2023/06/07 08:12:10;;;;;;;;;;;21.90;66.30;;;22.56;45.06;98745.44;5028883;28;113871;-79
2023/06/07 08:14:37;;;;;;;;;;;21.90;66.10;;;22.65;44.70;98746.72;5027835;28;124175;-79
2023/06/07 08:17:05;;;;;;;;;;;22.00;65.90;;;22.74;44.50;98743.53;5030812;28;123816;-79
2023/06/07 08:19:32;;;;;;;;;;;22.10;65.80;;;22.83;44.39;98741.13;5030610;28;114240;-79
2023/06/07 08:22:00;;;;;;;;;;;22.20;65.60;;;22.92;44.00;98737.97;5028966;28;114480;-80
2023/06/07 08:24:26;;;;;;;;;;;22.30;65.30;;;22.98;43.61;98733.59;5027914;28;124656;-79
2023/06/07 08:26:52;;;;;;;;;;;22.40;64.90;;;23.01;43.74;98734.81;5026794;28;123846;-78
2023/06/07 08:29:19;;;;;;;;;;;22.40;64.70;;;23.07;43.58;98733.19;5027875;28;113945;-78
2023/06/07 08:31:45;;;;;;;;;;;22.50;64.60;;;23.10;43.05;98732.41;5029198;28;114035;-80
2023/06/07 08:34:11;;;;;;;;;;;22.50;64.20;;;23.13;43.23;98731.59;5017351;28;124376;-81
2023/06/07 08:36:39;;;;;;;;;;;22.60;64.30;;;23.21;43.22;98727.59;5020262;28;123927;-82
2023/06/07 08:39:07;;;;;;;;;;;22.70;64.30;;;23.32;42.82;98722.81;5008810;28;113381;-82
2023/06/07 08:41:33;;;;;;;;;;;22.70;63.80;;;23.38;42.69;98726.03;5029599;27;113485;-82
2023/06/07 08:43:59;;;;;;;;;;;22.80;63.60;;;23.46;42.03;98727.66;5026575;28;123955;-81
2023/06/07 08:46:30;;;;;;;;;;;22.90;62.90;;;23.51;41.96;98729.28;5026009;28;123904;-81
2023/06/07 08:48:58;;;;;;;;;;;23.00;62.50;;;23.55;41.40;98724.44;5023923;28;114575;-80
2023/06/07 08:51:25;;;;;;;;;;;23.00;61.80;;;23.58;41.41;98737.72;5027808;28;114039;-81
2023/06/07 08:53:56;;;;;;;;;;;23.00;61.90;;;23.56;41.32;98731.69;4998947;28;124030;-80
2023/06/07 08:56:24;;;;;;;;;;;23.10;61.60;;;23.54;41.26;98732.09;5021629;28;123935;-81
2023/06/07 08:58:53;;;;;;;;;;;23.10;61.20;;;23.57;41.11;98727.66;5027829;28;114540;-80
2023/06/07 09:01:20;;;;;;;;;;;23.20;61.00;;;23.62;41.35;98729.28;5014027;28;113256;-81
2023/06/07 09:03:56;;;;;;;;;;;23.20;61.10;;;23.63;41.00;98731.69;5028348;27;124202;-82
2023/06/07 09:06:24;;;;;;;;;;;23.20;60.70;;;23.64;40.86;98732.50;5030779;28;124032;-82
2023/06/07 09:08:50;;;;;;;;;;;23.10;60.50;;;23.66;40.89;98725.25;5030705;28;115193;-82
2023/06/07 09:11:17;;;;;;;;;;;23.20;60.60;;;23.64;40.44;98736.13;5033663;27;113959;-81
2023/06/07 09:13:43;;;;;;;;;;;23.20;59.80;;;23.61;40.19;98734.09;5031180;28;124587;-82
2023/06/07 09:16:13;;;;;;;;;;;23.20;59.50;;;23.59;40.39;98731.69;5031545;28;124505;-82
2023/06/07 09:18:53;;;;;;;;;;;23.20;59.70;;;23.63;40.24;98731.69;5025460;28;114739;-82
2023/06/07 09:21:21;;;;;;;;;;;23.20;59.60;;;23.69;40.46;98729.28;5033480;28;113874;-82
2023/06/07 09:23:51;;;;;;;;;;;23.20;59.70;;;23.75;40.32;98733.31;5033358;28;124127;-81
2023/06/07 09:26:22;;;;;;;;;;;23.30;59.90;;;23.77;40.15;98731.72;5013718;28;122745;-81
2023/06/07 09:28:49;;;;;;;;;;;23.30;59.40;;;23.73;40.16;98730.94;5008313;27;113902;-78
2023/06/07 09:31:29;;;;;;;;;;;23.30;59.30;;;23.75;40.34;98733.31;5025144;27;114152;-74
2023/06/07 09:33:56;;;;;;;;;;;23.40;59.60;;;23.80;40.10;98730.94;5029548;28;124325;-75
2023/06/07 09:36:22;;;;;;;;;;;23.40;59.50;;;23.80;40.28;98730.94;5029771;28;124436;-77
2023/06/07 09:38:48;;;;;;;;;;;23.40;59.40;;;23.81;40.08;98729.72;5024006;28;114888;-78
2023/06/07 09:41:15;;;;;;;;;;;23.40;59.40;;;23.86;40.16;98733.31;5029092;28;113854;-78
2023/06/07 09:43:50;;;;;;;;;;;23.50;59.60;;;23.92;39.94;98726.09;5015317;28;123584;-78
2023/06/07 09:46:18;;;;;;;;;;;23.50;59.50;;;23.95;40.10;98714.78;5029024;28;123763;-77
2023/06/07 09:48:50;;;;;;;;;;;23.50;59.60;;;23.98;40.15;98721.66;5028910;28;114922;-76
2023/06/07 09:51:18;;;;;;;;;;;23.50;59.70;;;24.01;39.99;98723.66;5030676;28;113772;-77
2023/06/07 09:53:59;;;;;;;;;;;23.60;59.70;;;24.07;39.95;98713.56;5027468;28;124247;-78
2023/06/07 09:56:25;;;;;;;;;;;23.60;59.60;;;24.12;39.79;98718.00;5029388;28;124009;-77
2023/06/07 09:59:12;;;;;;;;;;;23.60;59.10;;;24.12;39.48;98718.00;5029032;28;115024;-77
2023/06/07 10:01:43;;;;;;;;;;;23.70;58.90;;;24.16;39.10;98722.44;5030440;28;114779;-78
2023/06/07 10:04:11;;;;;;;;;;;23.70;58.40;;;24.17;39.00;98711.94;5022711;28;123601;-86
2023/06/07 10:06:40;;;;;;;;;;;23.70;58.00;;;24.18;39.44;98716.34;5007926;28;123547;-77
2023/06/07 10:09:08;;;;;;;;;;;23.80;58.40;;;24.23;39.48;98713.97;5029672;28;115082;-76
2023/06/07 10:11:38;;;;;;;;;;;23.80;58.60;;;24.30;39.01;98712.31;5029599;28;113637;-77
2023/06/07 10:14:18;;;;;;;;;;;23.80;58.10;;;24.36;38.79;98705.03;5027927;27;124618;-76
2023/06/07 10:16:54;;;;;;;;;;;23.90;58.00;;;24.39;38.44;98705.00;5023312;27;123987;-77
2023/06/07 10:19:40;;;;;;;;;;;23.50;57.30;;;24.46;38.54;98701.41;5023879;28;114471;-76
2023/06/07 10:22:15;;;;;;;;;;;24.00;57.80;;;24.53;38.71;98709.03;5024839;27;113801;-77
2023/06/07 10:25:09;;;;;;;;;;;24.00;57.90;;;24.54;38.29;98710.66;5021351;28;124030;-77
2023/06/07 10:28:04;;;;;;;;;;;24.10;57.70;;;24.47;38.44;98711.47;5026691;28;123894;-79
2023/06/07 10:30:33;;;;;;;;;;;24.10;57.40;;;24.48;38.39;98713.13;5029144;27;113856;-79
2023/06/07 10:33:00;;;;;;;;;;;24.20;57.30;;;24.47;37.67;98711.47;5019451;28;114252;-75
2023/06/07 10:35:27;;;;;;;;;;;24.10;56.70;;;24.49;38.11;98700.59;5022056;28;123799;-77
2023/06/07 10:37:56;;;;;;;;;;;24.20;56.80;;;24.48;38.09;98701.81;5011202;28;122964;-77
2023/06/07 10:40:24;;;;;;;;;;;24.20;56.80;;;24.43;38.13;98697.34;5026907;28;114473;-76
2023/06/07 10:42:55;;;;;;;;;;;24.20;56.70;;;24.46;38.28;98698.59;5025015;28;113930;-76
2023/06/07 10:45:22;;;;;;;;;;;24.20;56.90;;;24.50;38.38;98696.53;5030398;28;124099;-76
2023/06/07 10:47:48;;;;;;;;;;;24.20;56.90;;;24.56;38.21;98686.44;5021471;27;123815;-76
2023/06/07 10:50:30;;;;;;;;;;;24.20;56.80;;;24.61;37.78;98680.38;5014891;28;115638;-77
2023/06/07 10:53:00;;;;;;;;;;;24.30;56.80;;;24.69;38.02;98673.47;5024039;28;114715;-77
2023/06/07 10:55:31;;;;;;;;;;;24.30;57.10;;;24.76;37.94;98681.09;5027095;28;124096;-76
2023/06/07 10:57:58;;;;;;;;;;;24.30;57.20;;;24.77;37.98;98673.41;5010892;28;123916;-76
2023/06/07 11:00:38;;;;;;;;;;;24.30;56.30;;;24.78;37.68;98683.53;5027447;28;114997;-76
2023/06/07 11:03:04;;;;;;;;;;;24.40;56.50;;;24.83;37.59;98683.09;5021098;28;114498;-76
2023/06/07 11:05:53;;;;;;;;;;;24.40;56.50;;;24.83;37.67;98683.91;5024141;27;123034;-77
2023/06/07 11:08:27;;;;;;;;;;;24.40;56.50;;;24.84;37.11;98681.88;5019360;28;124017;-77
2023/06/07 11:11:00;;;;;;;;;;;24.50;55.90;;;24.82;36.87;98687.13;5027659;28;114395;-76
2023/06/07 11:13:53;;;;;;;;;;;24.50;55.60;;;24.80;37.01;98684.72;5028313;27;113922;-77
2023/06/07 11:16:25;;;;;;;;;;;24.50;55.50;;;24.83;36.63;98680.28;5025667;28;124441;-81